Time;durP1;ratioP1;P1;durP2;ratioP2;P2;SDS_P1;SDS_P2;PMS_P1;PMS_P2;Temp;Humidity;BMP_temperature;BMP_pressure;BME280_temperature;BME280_humidity;BME280_pressure;Samples;Min_cycle;Max_cycle;Signal;HPM_P1;HPM_P2
2023/09/14 00:00:31;;;;;;;;;;;;;;;24.79;43.30;98964.34;5073259;28;19917;-69
2023/09/14 00:02:56;;;;;;;;;;;;;;;24.77;43.22;98971.72;5072712;28;19978;-69
2023/09/14 00:05:21;;;;;;;;;;;;;;;24.73;43.22;98964.13;5072802;28;19917;-69
2023/09/14 00:07:46;;;;;;;;;;;;;;;24.71;43.44;98965.34;5072294;28;19924;-69
2023/09/14 00:10:12;;;;;;;;;;;;;;;24.68;43.42;98966.56;5072083;28;20434;-69
2023/09/14 00:12:37;;;;;;;;;;;;;;;24.67;43.53;98970.28;5073721;28;20448;-69
2023/09/14 00:15:03;;;;;;;;;;;;;;;24.65;43.58;98963.50;5056062;28;19982;-69
2023/09/14 00:17:28;;;;;;;;;;;;;;;24.63;43.72;98971.69;5055427;28;19970;-69
2023/09/14 00:19:53;;;;;;;;;;;;;;;24.62;43.77;98967.41;5072247;28;19924;-69
2023/09/14 00:22:19;;;;;;;;;;;;;;;24.61;43.69;98963.06;5055053;28;19973;-69
2023/09/14 00:24:44;;;;;;;;;;;;;;;24.59;43.76;98964.28;5055083;28;19916;-69
2023/09/14 00:27:09;;;;;;;;;;;;;;;24.58;43.66;98962.66;5072094;28;19927;-69
2023/09/14 00:29:35;;;;;;;;;;;;;;;24.56;43.86;98968.19;5072775;28;20391;-69
2023/09/14 00:32:01;;;;;;;;;;;;;;;24.54;44.03;98964.88;5071751;28;20303;-69
2023/09/14 00:34:26;;;;;;;;;;;;;;;24.53;43.85;98961.38;5071792;28;19923;-69
2023/09/14 00:36:51;;;;;;;;;;;;;;;24.51;43.81;98962.59;5071794;28;19917;-69
2023/09/14 00:39:17;;;;;;;;;;;;;;;24.50;43.98;98959.13;5073113;28;19916;-69
2023/09/14 00:41:42;;;;;;;;;;;;;;;24.48;44.13;98958.50;5072267;28;20354;-70
2023/09/14 00:44:07;;;;;;;;;;;;;;;24.47;44.19;98958.72;5071778;28;19923;-69
2023/09/14 00:46:33;;;;;;;;;;;;;;;24.46;44.03;98954.38;5071860;28;20403;-69
2023/09/14 00:48:58;;;;;;;;;;;;;;;24.45;44.08;98956.25;5071517;28;19917;-69
2023/09/14 00:51:24;;;;;;;;;;;;;;;24.45;44.27;98955.41;5072689;28;20372;-69
2023/09/14 00:53:50;;;;;;;;;;;;;;;24.41;44.42;98949.66;5072581;28;20113;-70
2023/09/14 00:56:16;;;;;;;;;;;;;;;24.39;44.48;98949.84;5072851;28;19920;-69
2023/09/14 00:58:41;;;;;;;;;;;;;;;24.36;44.42;98950.25;5071281;28;19923;-69
2023/09/14 01:01:07;;;;;;;;;;;;;;;24.35;44.31;98947.78;5072664;28;19982;-69
2023/09/14 01:03:33;;;;;;;;;;;;;;;24.34;44.60;98943.50;5071100;28;19917;-69
2023/09/14 01:05:59;;;;;;;;;;;;;;;24.34;44.48;98940.81;5071477;28;19969;-69
2023/09/14 01:08:24;;;;;;;;;;;;;;;24.33;44.38;98949.84;5072279;28;20007;-70
2023/09/14 01:10:49;;;;;;;;;;;;;;;24.33;44.26;98945.31;5054402;28;19920;-69
2023/09/14 01:13:23;;;;;;;;;;;;;;;24.34;44.30;98949.63;5071072;28;19916;-69
2023/09/14 01:15:51;;;;;;;;;;;;;;;24.33;44.27;98939.16;5071503;28;19916;-69
2023/09/14 01:18:34;;;;;;;;;;;;;;;24.31;44.24;98944.72;5054153;28;19917;-69
2023/09/14 01:21:00;;;;;;;;;;;;;;;24.31;44.17;98939.38;5053970;28;19960;-69
2023/09/14 01:23:28;;;;;;;;;;;;;;;24.30;44.25;98947.56;5072079;28;19952;-69
2023/09/14 01:25:54;;;;;;;;;;;;;;;24.27;44.11;98943.44;5071002;28;19920;-70
2023/09/14 01:28:19;;;;;;;;;;;;;;;24.24;44.22;98943.84;5071052;28;20011;-69
2023/09/14 01:30:44;;;;;;;;;;;;;;;24.23;44.32;98952.91;5072292;28;19916;-69
2023/09/14 01:33:10;;;;;;;;;;;;;;;24.21;44.48;98949.63;5072283;28;19926;-69
2023/09/14 01:35:51;;;;;;;;;;;;;;;24.18;44.50;98950.00;5070923;28;19916;-69
2023/09/14 01:38:16;;;;;;;;;;;;;;;24.15;44.57;98945.09;5072234;28;19948;-69
2023/09/14 01:40:42;;;;;;;;;;;;;;;24.13;44.32;98944.44;5071052;28;19917;-70
2023/09/14 01:43:07;;;;;;;;;;;;;;;24.09;44.41;98945.88;5071045;28;20018;-69
2023/09/14 01:45:33;;;;;;;;;;;;;;;24.09;44.44;98945.88;5072105;28;19927;-69
2023/09/14 01:47:59;;;;;;;;;;;;;;;24.06;44.58;98951.59;5072063;28;20331;-69
2023/09/14 01:50:24;;;;;;;;;;;;;;;24.05;44.48;98949.94;5070608;28;19917;-69
2023/09/14 01:52:52;;;;;;;;;;;;;;;24.02;44.71;98954.66;5054091;28;20011;-69
2023/09/14 01:55:17;;;;;;;;;;;;;;;24.00;44.86;98943.38;5071476;28;20411;-69
2023/09/14 01:57:43;;;;;;;;;;;;;;;24.00;44.65;98946.06;5074582;28;19956;-69
2023/09/14 02:00:08;;;;;;;;;;;;;;;23.98;44.69;98942.75;5075722;28;19917;-69
2023/09/14 02:02:33;;;;;;;;;;;;;;;23.98;44.65;98939.25;5075636;28;19970;-71
2023/09/14 02:04:59;;;;;;;;;;;;;;;23.97;44.79;98945.59;5075470;28;19923;-71
2023/09/14 02:07:24;;;;;;;;;;;;;;;23.93;44.54;98942.53;5074489;28;19916;-71
2023/09/14 02:09:50;;;;;;;;;;;;;;;23.93;44.55;98937.19;5075540;28;19924;-70
2023/09/14 02:12:15;;;;;;;;;;;;;;;23.92;44.75;98932.88;5075822;28;19916;-70
2023/09/14 02:14:41;;;;;;;;;;;;;;;23.92;44.70;98935.53;5074519;28;20012;-71
2023/09/14 02:17:06;;;;;;;;;;;;;;;23.90;44.64;98937.59;5074178;28;19922;-71
2023/09/14 02:19:31;;;;;;;;;;;;;;;23.89;44.51;98935.13;5075683;28;20386;-70
2023/09/14 02:21:57;;;;;;;;;;;;;;;23.88;44.71;98938.78;5073894;28;19917;-70
2023/09/14 02:24:22;;;;;;;;;;;;;;;23.88;44.58;98936.97;5073992;28;19917;-70
2023/09/14 02:26:47;;;;;;;;;;;;;;;23.86;44.61;98919.53;5074281;28;20299;-71
2023/09/14 02:29:13;;;;;;;;;;;;;;;23.84;44.66;98931.19;5075231;28;20003;-70
2023/09/14 02:31:38;;;;;;;;;;;;;;;23.83;44.62;98920.69;5073935;28;19917;-71
2023/09/14 02:34:03;;;;;;;;;;;;;;;23.81;44.71;98928.09;5074865;28;19916;-71
2023/09/14 02:36:29;;;;;;;;;;;;;;;23.79;44.56;98922.13;5075203;28;19924;-70
2023/09/14 02:38:54;;;;;;;;;;;;;;;23.77;44.67;98922.34;5073820;28;19916;-70
2023/09/14 02:41:19;;;;;;;;;;;;;;;23.77;44.64;98930.31;5074044;28;19924;-70
2023/09/14 02:43:45;;;;;;;;;;;;;;;23.77;44.52;98927.66;5073766;28;19924;-70
2023/09/14 02:46:10;;;;;;;;;;;;;;;23.77;44.44;98932.19;5073661;28;19962;-71
2023/09/14 02:48:35;;;;;;;;;;;;;;;23.76;44.51;98930.53;5056809;28;19923;-70
2023/09/14 02:51:01;;;;;;;;;;;;;;;23.74;44.45;98933.38;5073723;28;20315;-70
2023/09/14 02:53:26;;;;;;;;;;;;;;;23.73;44.60;98929.06;5056937;28;20011;-70
2023/09/14 02:55:52;;;;;;;;;;;;;;;23.74;44.50;98932.56;5074923;28;19927;-70
2023/09/14 02:58:17;;;;;;;;;;;;;;;23.73;44.50;98938.91;5073595;28;19978;-71
2023/09/14 03:00:43;;;;;;;;;;;;;;;23.71;44.36;98941.78;5073481;28;20378;-71
2023/09/14 03:03:11;;;;;;;;;;;;;;;23.71;44.48;98946.28;5073199;28;19917;-70
2023/09/14 03:05:37;;;;;;;;;;;;;;;23.69;44.57;98940.31;5057094;28;19917;-70
2023/09/14 03:08:02;;;;;;;;;;;;;;;23.65;44.51;98929.25;5074478;28;19927;-71
2023/09/14 03:10:27;;;;;;;;;;;;;;;23.64;44.59;98936.41;5074539;28;19974;-70
2023/09/14 03:12:53;;;;;;;;;;;;;;;23.61;44.69;98939.47;5074738;28;19920;-70
2023/09/14 03:15:18;;;;;;;;;;;;;;;23.59;44.82;98946.81;5074382;28;19917;-71
2023/09/14 03:17:43;;;;;;;;;;;;;;;23.58;44.81;98950.53;5074522;28;20005;-72
2023/09/14 03:20:10;;;;;;;;;;;;;;;23.57;44.82;98956.03;5074315;28;20295;-72
2023/09/14 03:22:36;;;;;;;;;;;;;;;23.55;44.76;98952.75;5072953;28;19916;-70
2023/09/14 03:25:01;;;;;;;;;;;;;;;23.53;44.93;98949.44;5073476;28;19939;-70
2023/09/14 03:27:26;;;;;;;;;;;;;;;23.52;44.65;98958.47;5072892;28;19939;-70
2023/09/14 03:29:52;;;;;;;;;;;;;;;23.51;44.86;98956.81;5072752;28;19970;-71
2023/09/14 03:32:17;;;;;;;;;;;;;;;23.50;44.68;98948.03;5072646;28;19924;-71
2023/09/14 03:34:42;;;;;;;;;;;;;;;23.49;44.67;98955.16;5072696;28;19924;-71
2023/09/14 03:37:07;;;;;;;;;;;;;;;23.49;44.74;98963.16;5072032;28;19920;-69
2023/09/14 03:39:33;;;;;;;;;;;;;;;23.65;45.38;98967.34;5073978;28;20011;-69
2023/09/14 03:41:58;;;;;;;;;;;;;;;23.82;45.53;98957.22;5072643;28;19917;-70
2023/09/14 03:44:23;;;;;;;;;;;;;;;23.89;45.47;98953.78;5072660;28;19916;-73
2023/09/14 03:46:49;;;;;;;;;;;;;;;23.97;45.12;98950.94;5055840;28;19924;-71
2023/09/14 03:49:14;;;;;;;;;;;;;;;24.06;45.28;98949.75;5073643;28;19923;-72
2023/09/14 03:51:39;;;;;;;;;;;;;;;24.15;44.82;98950.41;5073585;28;20003;-74
2023/09/14 03:54:05;;;;;;;;;;;;;;;24.04;44.69;98951.81;5073481;28;20360;-82
2023/09/14 03:56:30;;;;;;;;;;;;;;;23.81;44.78;98949.41;5073097;28;19916;-84
2023/09/14 03:58:55;;;;;;;;;;;;;;;23.59;45.02;98944.16;5073012;28;19916;-83
2023/09/14 04:01:20;;;;;;;;;;;;;;;23.42;45.56;98949.00;5073988;28;19951;-79
2023/09/14 04:03:46;;;;;;;;;;;;;;;23.32;45.66;98951.16;5074302;28;19923;-74
2023/09/14 04:06:11;;;;;;;;;;;;;;;23.31;46.57;98949.53;5073657;28;19917;-80
2023/09/14 04:08:36;;;;;;;;;;;;;;;23.38;46.81;98950.38;5072525;28;19925;-77
2023/09/14 04:11:02;;;;;;;;;;;;;;;23.52;46.53;98961.97;5072653;28;19924;-81
2023/09/14 04:13:32;;;;;;;;;;;;;;;23.71;46.08;98959.63;5073227;28;19955;-77
2023/09/14 04:15:57;;;;;;;;;;;;;;;23.93;45.49;98955.84;5055715;28;19966;-74
2023/09/14 04:18:23;;;;;;;;;;;;;;;24.19;44.76;98951.63;5054615;28;19916;-75
2023/09/14 04:20:48;;;;;;;;;;;;;;;24.47;43.97;98956.03;5071404;28;19923;-77
2023/09/14 04:23:17;;;;;;;;;;;;;;;24.80;42.93;98958.78;5071084;28;20011;-73
2023/09/14 04:25:44;;;;;;;;;;;;;;;25.13;42.28;98957.97;5071933;28;20303;-74
2023/09/14 04:28:18;;;;;;;;;;;;;;;25.44;41.58;98954.69;5071699;28;19920;-75
2023/09/14 04:30:44;;;;;;;;;;;;;;;25.95;40.17;98958.47;5054910;28;20019;-75
2023/09/14 04:33:13;;;;;;;;;;;;;;;26.50;39.26;98962.53;5055106;28;19921;-76
2023/09/14 04:35:38;;;;;;;;;;;;;;;26.84;38.25;98961.31;5073012;28;19916;-76
2023/09/14 04:38:04;;;;;;;;;;;;;;;27.47;36.80;98964.09;5071384;28;20398;-74
2023/09/14 04:40:29;;;;;;;;;;;;;;;27.96;35.96;98963.19;5054898;28;19963;-76
2023/09/14 04:42:55;;;;;;;;;;;;;;;28.51;34.72;98964.09;5071754;28;20415;-76
2023/09/14 04:45:20;;;;;;;;;;;;;;;29.08;33.40;98966.34;5071377;28;19917;-74
2023/09/14 04:47:45;;;;;;;;;;;;;;;29.63;32.53;98959.81;5071397;28;19916;-74
2023/09/14 04:50:10;;;;;;;;;;;;;;;30.25;31.13;98963.78;5072718;28;19917;-75
2023/09/14 04:52:36;;;;;;;;;;;;;;;30.72;30.88;98963.56;5072854;28;19917;-74
2023/09/14 04:55:01;;;;;;;;;;;;;;;31.19;29.54;98960.59;5071169;28;20299;-74
2023/09/14 04:57:26;;;;;;;;;;;;;;;31.69;29.16;98956.19;5071416;28;20015;-76
2023/09/14 04:59:52;;;;;;;;;;;;;;;32.09;28.41;98952.38;5072515;28;19971;-75
2023/09/14 05:02:17;;;;;;;;;;;;;;;32.46;28.04;98951.66;5072901;28;19947;-75
2023/09/14 05:04:42;;;;;;;;;;;;;;;32.81;27.60;98957.69;5071397;28;19920;-75
2023/09/14 05:07:07;;;;;;;;;;;;;;;33.14;26.92;98953.06;5055054;28;20388;-75
2023/09/14 05:09:33;;;;;;;;;;;;;;;33.52;26.51;98957.38;5054286;28;20026;-74
2023/09/14 05:11:58;;;;;;;;;;;;;;;33.91;25.31;98948.13;5071252;28;20380;-75
2023/09/14 05:14:24;;;;;;;;;;;;;;;34.22;25.25;98948.19;5054328;28;20427;-76
2023/09/14 05:16:49;;;;;;;;;;;;;;;34.46;24.71;98948.56;5054649;28;20408;-76
2023/09/14 05:19:14;;;;;;;;;;;;;;;34.85;24.33;98952.66;5073102;28;20387;-75
2023/09/14 05:21:39;;;;;;;;;;;;;;;35.22;23.92;98946.09;5071359;28;20402;-76
2023/09/14 05:24:05;;;;;;;;;;;;;;;35.53;23.44;98938.72;5071827;28;19916;-76
2023/09/14 05:26:30;;;;;;;;;;;;;;;35.56;23.17;98946.31;5071233;28;19916;-76
2023/09/14 05:28:56;;;;;;;;;;;;;;;35.31;23.68;98939.06;5071281;28;19917;-77
2023/09/14 05:31:21;;;;;;;;;;;;;;;34.99;24.00;98950.22;5056895;28;20398;-76
2023/09/14 05:33:46;;;;;;;;;;;;;;;34.33;24.91;98946.34;5076625;28;19917;-79
2023/09/14 05:36:12;;;;;;;;;;;;;;;34.28;25.01;98940.94;5076215;28;19923;-75
2023/09/14 05:38:37;;;;;;;;;;;;;;;34.31;24.98;98943.09;5075200;28;19990;-75
2023/09/14 05:41:03;;;;;;;;;;;;;;;34.15;25.10;98936.81;5058408;28;20423;-76
2023/09/14 05:43:28;;;;;;;;;;;;;;;34.06;25.53;98939.22;5074867;28;20380;-76
2023/09/14 05:45:54;;;;;;;;;;;;;;;33.80;26.23;98941.03;5076329;28;19916;-78
2023/09/14 05:48:19;;;;;;;;;;;;;;;33.59;26.51;98940.94;5075034;28;19923;-75
2023/09/14 05:50:45;;;;;;;;;;;;;;;33.72;26.84;98936.94;5058113;28;20323;-75
2023/09/14 05:53:10;;;;;;;;;;;;;;;33.94;26.27;98936.75;5075169;28;19917;-75
2023/09/14 05:55:35;;;;;;;;;;;;;;;33.95;25.53;98935.66;5058089;28;20272;-77
2023/09/14 05:58:01;;;;;;;;;;;;;;;34.42;25.06;98940.13;5057681;28;19928;-75
2023/09/14 06:00:26;;;;;;;;;;;;;;;34.86;24.46;98943.44;5075348;28;19967;-76
2023/09/14 06:02:52;;;;;;;;;;;;;;;35.22;24.14;98941.50;5074852;28;20010;-75
2023/09/14 06:05:18;;;;;;;;;;;;;;;35.63;23.54;98948.72;5074691;28;19917;-76
2023/09/14 06:07:44;;;;;;;;;;;;;;;35.94;23.39;98941.28;5057823;28;19920;-76
2023/09/14 06:10:09;;;;;;;;;;;;;;;36.33;22.83;98945.19;5057456;28;19930;-76
2023/09/14 06:12:34;;;;;;;;;;;;;;;36.61;22.78;98951.78;5074449;28;19974;-73
2023/09/14 06:15:00;;;;;;;;;;;;;;;36.79;22.33;98942.13;5057798;28;20019;-75
2023/09/14 06:17:25;;;;;;;;;;;;;;;37.12;21.80;98948.63;5074259;28;19916;-76
2023/09/14 06:19:51;;;;;;;;;;;;;;;37.23;21.81;98949.38;5074698;28;20390;-75
2023/09/14 06:22:16;;;;;;;;;;;;;;;37.46;21.47;98953.22;5075737;28;19916;-78
2023/09/14 06:24:41;;;;;;;;;;;;;;;37.59;21.08;98957.16;5057824;28;19923;-76
2023/09/14 06:27:07;;;;;;;;;;;;;;;37.85;20.64;98956.03;5057606;28;20376;-76
2023/09/14 06:29:32;;;;;;;;;;;;;;;37.91;21.03;98958.41;5057309;28;19921;-75
2023/09/14 06:31:58;;;;;;;;;;;;;;;37.93;20.77;98961.63;5057463;28;19924;-76
2023/09/14 06:34:23;;;;;;;;;;;;;;;37.97;21.02;98959.13;5075564;28;19924;-74
2023/09/14 06:36:48;;;;;;;;;;;;;;;38.11;20.25;98970.97;5074402;28;19924;-76
2023/09/14 06:39:14;;;;;;;;;;;;;;;38.21;19.89;98969.19;5074574;28;20365;-76
2023/09/14 06:41:39;;;;;;;;;;;;;;;38.30;19.84;98970.16;5056922;28;19924;-76
2023/09/14 06:44:05;;;;;;;;;;;;;;;38.36;19.59;98975.22;5074446;28;19917;-75
2023/09/14 06:46:30;;;;;;;;;;;;;;;38.43;20.29;98982.22;5057334;28;19938;-75
2023/09/14 06:48:55;;;;;;;;;;;;;;;38.59;19.00;98982.81;5057221;28;20012;-74
2023/09/14 06:51:21;;;;;;;;;;;;;;;38.49;19.44;98987.34;5074096;28;20015;-76
2023/09/14 06:53:46;;;;;;;;;;;;;;;38.63;19.30;98986.59;5073731;28;20368;-74
2023/09/14 06:56:12;;;;;;;;;;;;;;;38.47;19.51;98989.53;5074168;28;19956;-78
2023/09/14 06:58:37;;;;;;;;;;;;;;;38.67;19.36;98985.72;5074388;28;19920;-75
2023/09/14 07:01:06;;;;;;;;;;;;;;;38.76;19.62;98988.56;5057314;28;19955;-77
2023/09/14 07:03:32;;;;;;;;;;;;;;;38.84;19.54;98992.53;5073636;28;20307;-76
2023/09/14 07:05:58;;;;;;;;;;;;;;;38.94;19.49;98994.31;5073714;28;19924;-77
2023/09/14 07:08:23;;;;;;;;;;;;;;;38.88;19.33;98985.38;5056496;28;19925;-76
2023/09/14 07:10:48;;;;;;;;;;;;;;;38.94;19.12;98989.66;5057025;28;19959;-75
2023/09/14 07:13:14;;;;;;;;;;;;;;;38.94;19.15;98994.31;5056469;28;19923;-77
2023/09/14 07:15:40;;;;;;;;;;;;;;;38.95;19.58;98996.72;5056844;28;20421;-77
2023/09/14 07:18:05;;;;;;;;;;;;;;;39.11;19.49;98997.31;5073330;28;20018;-75
2023/09/14 07:20:30;;;;;;;;;;;;;;;39.22;18.92;98993.28;5073498;28;19916;-75
2023/09/14 07:22:55;;;;;;;;;;;;;;;39.32;18.96;98996.94;5073084;28;20315;-74
2023/09/14 07:25:21;;;;;;;;;;;;;;;39.40;19.31;98998.97;5074581;28;19916;-75
2023/09/14 07:27:47;;;;;;;;;;;;;;;39.57;18.74;98998.41;5074323;28;19967;-74
2023/09/14 07:30:14;;;;;;;;;;;;;;;39.64;18.73;98989.81;5074614;28;19982;-76
2023/09/14 07:32:40;;;;;;;;;;;;;;;39.75;18.42;98991.22;5056698;28;19982;-76
2023/09/14 07:35:06;;;;;;;;;;;;;;;39.77;18.60;98992.53;5056760;28;20019;-76
2023/09/14 07:37:31;;;;;;;;;;;;;;;39.65;18.61;98991.41;5055889;28;20039;-76
2023/09/14 07:39:57;;;;;;;;;;;;;;;39.73;18.46;98986.03;5056274;28;20348;-76
2023/09/14 07:42:22;;;;;;;;;;;;;;;39.88;18.47;98984.09;5073542;28;19916;-74
2023/09/14 07:44:47;;;;;;;;;;;;;;;39.85;18.63;98984.72;5056898;28;19916;-78
2023/09/14 07:47:13;;;;;;;;;;;;;;;39.91;18.28;98991.69;5056377;28;20437;-76
2023/09/14 07:49:38;;;;;;;;;;;;;;;39.95;18.64;98982.59;5056005;28;20384;-76
2023/09/14 07:52:04;;;;;;;;;;;;;;;40.13;18.21;98980.84;5072665;28;19921;-74
2023/09/14 07:54:31;;;;;;;;;;;;;;;40.11;17.87;98974.09;5072109;28;19917;-76
2023/09/14 07:56:56;;;;;;;;;;;;;;;39.98;18.28;98983.94;5056161;28;19966;-79
2023/09/14 07:59:21;;;;;;;;;;;;;;;40.18;18.08;98973.66;5072615;28;19917;-76
2023/09/14 08:01:47;;;;;;;;;;;;;;;40.33;18.01;98974.13;5072777;28;20296;-75
2023/09/14 08:04:12;;;;;;;;;;;;;;;40.37;17.99;98979.75;5072726;28;19924;-76
2023/09/14 08:06:37;;;;;;;;;;;;;;;40.44;17.64;98971.19;5055830;28;19916;-79
2023/09/14 08:09:03;;;;;;;;;;;;;;;40.47;17.98;98976.00;5055580;28;19928;-76
2023/09/14 08:11:29;;;;;;;;;;;;;;;40.54;18.15;98968.19;5072514;28;19916;-75
2023/09/14 08:13:54;;;;;;;;;;;;;;;40.55;17.69;98971.72;5072873;28;19940;-75
2023/09/14 08:16:19;;;;;;;;;;;;;;;40.61;17.50;98965.84;5073168;28;19917;-77
2023/09/14 08:18:45;;;;;;;;;;;;;;;40.56;17.63;98960.47;5059979;28;20375;-75
2023/09/14 08:21:10;;;;;;;;;;;;;;;40.67;17.83;98958.28;5057686;28;19973;-75
2023/09/14 08:23:35;;;;;;;;;;;;;;;40.77;17.35;98954.50;5074392;28;19916;-77
2023/09/14 08:26:03;;;;;;;;;;;;;;;40.61;18.00;98946.69;5057673;28;19916;-75
2023/09/14 08:28:30;;;;;;;;;;;;;;;40.75;17.17;98943.84;5056690;28;19924;-75
2023/09/14 08:30:55;;;;;;;;;;;;;;;40.55;17.60;98952.56;5073924;28;19924;-76
2023/09/14 08:33:20;;;;;;;;;;;;;;;40.62;17.89;98942.03;5056756;28;20299;-78
2023/09/14 08:35:45;;;;;;;;;;;;;;;40.56;17.46;98937.78;5074542;28;19916;-75
2023/09/14 08:38:11;;;;;;;;;;;;;;;40.73;17.45;98939.84;5056128;28;19917;-76
2023/09/14 08:40:38;;;;;;;;;;;;;;;40.80;17.88;98938.28;5073998;28;19916;-75
2023/09/14 08:43:04;;;;;;;;;;;;;;;40.85;17.70;98937.38;5056334;28;20353;-75
2023/09/14 08:45:32;;;;;;;;;;;;;;;40.91;17.24;98932.56;5072666;28;19917;-75
2023/09/14 08:47:58;;;;;;;;;;;;;;;40.73;17.45;98937.91;5072375;28;19917;-76
2023/09/14 08:50:27;;;;;;;;;;;;;;;40.71;17.47;98929.22;5072234;28;19921;-78
2023/09/14 08:52:53;;;;;;;;;;;;;;;40.78;17.96;98929.56;5055154;28;19920;-75
2023/09/14 08:55:19;;;;;;;;;;;;;;;40.89;17.20;98932.88;5055677;28;20387;-75
2023/09/14 08:57:45;;;;;;;;;;;;;;;40.83;17.77;98926.72;5055172;28;19986;-76
2023/09/14 09:00:17;;;;;;;;;;;;;;;40.85;17.37;98926.44;5055784;28;19920;-76
2023/09/14 09:02:48;;;;;;;;;;;;;;;40.77;17.20;98914.28;5056141;28;19924;-75
2023/09/14 09:05:14;;;;;;;;;;;;;;;40.81;17.31;98917.19;5055092;28;20387;-76
2023/09/14 09:07:40;;;;;;;;;;;;;;;40.71;17.43;98921.00;5071619;28;19916;-75
2023/09/14 09:10:10;;;;;;;;;;;;;;;40.44;17.95;98914.53;5072140;28;19925;-77
2023/09/14 09:12:35;;;;;;;;;;;;;;;40.48;17.76;98912.78;5072749;28;19917;-77
2023/09/14 09:15:00;;;;;;;;;;;;;;;40.15;18.03;98907.56;5071902;28;19927;-76
2023/09/14 09:17:26;;;;;;;;;;;;;;;40.25;18.47;98905.66;5072880;28;20307;-76
2023/09/14 09:19:53;;;;;;;;;;;;;;;40.28;18.38;98892.22;5054817;28;19923;-75
2023/09/14 09:22:18;;;;;;;;;;;;;;;40.34;18.12;98892.88;5054649;28;19967;-74
2023/09/14 09:24:43;;;;;;;;;;;;;;;40.21;18.24;98889.09;5054715;28;19921;-76
2023/09/14 09:27:25;;;;;;;;;;;;;;;40.20;17.87;98892.13;5054678;28;19924;-75
2023/09/14 09:29:50;;;;;;;;;;;;;;;40.07;18.18;98889.13;5054470;28;20367;-76
2023/09/14 09:32:22;;;;;;;;;;;;;;;39.69;18.50;98888.63;5071239;28;19923;-76
2023/09/14 09:34:47;;;;;;;;;;;;;;;39.53;18.81;98888.13;5071264;28;19923;-75
2023/09/14 09:37:13;;;;;;;;;;;;;;;39.34;18.88;98893.69;5071162;28;20306;-76
2023/09/14 09:39:38;;;;;;;;;;;;;;;39.17;19.38;98878.72;5072854;28;19916;-76
2023/09/14 09:42:04;;;;;;;;;;;;;;;39.05;19.54;98873.72;5071499;28;19920;-78
2023/09/14 09:44:29;;;;;;;;;;;;;;;38.93;19.99;98873.41;5071417;28;20011;-77
2023/09/14 09:46:57;;;;;;;;;;;;;;;38.68;19.67;98877.41;5071139;28;19916;-77
2023/09/14 09:49:24;;;;;;;;;;;;;;;38.40;20.13;98882.78;5054418;28;19917;-76
2023/09/14 09:51:50;;;;;;;;;;;;;;;38.23;20.56;98874.34;5054599;28;19988;-79
2023/09/14 09:54:18;;;;;;;;;;;;;;;38.06;20.33;98875.63;5054477;28;19916;-75
2023/09/14 09:56:43;;;;;;;;;;;;;;;37.85;20.64;98866.97;5054422;28;20020;-75
2023/09/14 09:59:13;;;;;;;;;;;;;;;37.69;21.22;98869.09;5070743;28;20007;-76
2023/09/14 10:01:43;;;;;;;;;;;;;;;37.57;21.26;98868.66;5070985;28;19917;-76
2023/09/14 10:04:12;;;;;;;;;;;;;;;37.37;21.15;98858.84;5054215;28;20431;-76
2023/09/14 10:06:38;;;;;;;;;;;;;;;37.14;21.46;98858.53;5054681;28;20003;-75
2023/09/14 10:09:06;;;;;;;;;;;;;;;37.15;21.59;98865.63;5072245;28;19931;-75
2023/09/14 10:11:32;;;;;;;;;;;;;;;37.22;21.45;98857.13;5071173;28;19947;-77
2023/09/14 10:13:57;;;;;;;;;;;;;;;37.22;21.49;98852.47;5054362;28;20345;-77
2023/09/14 10:16:23;;;;;;;;;;;;;;;37.17;21.68;98855.25;5054871;28;19943;-76
2023/09/14 10:18:49;;;;;;;;;;;;;;;37.01;21.25;98851.88;5058441;28;20015;-76
2023/09/14 10:21:15;;;;;;;;;;;;;;;36.98;21.95;98851.66;5057858;28;19956;-77
2023/09/14 10:23:40;;;;;;;;;;;;;;;36.98;21.85;98843.50;5057580;28;19977;-79
2023/09/14 10:26:05;;;;;;;;;;;;;;;36.93;21.70;98837.00;5057670;28;19974;-78
2023/09/14 10:28:31;;;;;;;;;;;;;;;36.89;21.88;98840.59;5074429;28;20284;-74
2023/09/14 10:30:56;;;;;;;;;;;;;;;36.78;22.08;98834.44;5057527;28;19932;-75
2023/09/14 10:33:21;;;;;;;;;;;;;;;36.67;22.01;98832.91;5057924;28;19989;-77
2023/09/14 10:35:47;;;;;;;;;;;;;;;36.63;22.32;98829.94;5074554;28;20394;-76
2023/09/14 10:38:12;;;;;;;;;;;;;;;36.54;21.89;98829.75;5074197;28;19916;-74
2023/09/14 10:40:37;;;;;;;;;;;;;;;36.04;22.16;98831.75;5074101;28;19917;-75
2023/09/14 10:43:03;;;;;;;;;;;;;;;36.10;22.43;98829.81;5074005;28;19924;-76
2023/09/14 10:45:36;;;;;;;;;;;;;;;36.04;22.28;98831.75;5073981;28;20315;-76
2023/09/14 10:48:01;;;;;;;;;;;;;;;36.14;22.41;98833.63;5074033;28;19924;-75
2023/09/14 10:50:27;;;;;;;;;;;;;;;36.21;22.59;98821.31;5057087;28;19916;-76
2023/09/14 10:52:53;;;;;;;;;;;;;;;36.29;22.57;98828.06;5057265;28;19974;-75
2023/09/14 10:55:19;;;;;;;;;;;;;;;36.32;22.55;98826.69;5073814;28;19939;-79
2023/09/14 10:57:46;;;;;;;;;;;;;;;36.37;22.42;98819.31;5057503;28;19967;-76
2023/09/14 11:00:30;;;;;;;;;;;;;;;36.37;22.44;98816.59;5057156;28;19916;-76
2023/09/14 11:02:55;;;;;;;;;;;;;;;36.31;22.34;98816.91;5057096;28;19917;-71
2023/09/14 11:05:25;;;;;;;;;;;;;;;36.15;22.84;98814.31;5075320;28;19973;-77
2023/09/14 11:07:55;;;;;;;;;;;;;;;36.07;22.92;98805.94;5074314;28;19920;-75
2023/09/14 11:10:21;;;;;;;;;;;;;;;35.96;22.80;98805.19;5074530;28;19976;-76
2023/09/14 11:12:46;;;;;;;;;;;;;;;35.86;23.33;98801.47;5056732;28;19959;-80
2023/09/14 11:15:15;;;;;;;;;;;;;;;35.65;23.24;98805.38;5057142;28;19916;-76
2023/09/14 11:17:41;;;;;;;;;;;;;;;35.47;23.61;98806.84;5072964;28;19978;-76
2023/09/14 11:20:27;;;;;;;;;;;;;;;35.14;23.72;98801.81;5073367;28;19990;-78
2023/09/14 11:22:52;;;;;;;;;;;;;;;34.92;24.13;98802.16;5073551;28;19916;-77
2023/09/14 11:25:28;;;;;;;;;;;;;;;34.82;23.75;98798.66;5074634;28;19922;-83
2023/09/14 11:27:54;;;;;;;;;;;;;;;34.76;24.58;98792.41;5059158;28;20402;-88
2023/09/14 11:30:19;;;;;;;;;;;;;;;34.77;24.64;98785.91;5075065;28;19916;-84
2023/09/14 11:32:44;;;;;;;;;;;;;;;34.63;24.11;98777.50;5057891;28;20034;-82
2023/09/14 11:35:10;;;;;;;;;;;;;;;34.49;25.10;98788.13;5075146;28;20011;-78
2023/09/14 11:37:35;;;;;;;;;;;;;;;34.37;24.92;98779.47;5074108;28;19916;-89
2023/09/14 11:40:01;;;;;;;;;;;;;;;34.15;25.65;98774.31;5073560;28;19996;-77
2023/09/14 11:42:26;;;;;;;;;;;;;;;34.04;26.03;98773.47;5073459;28;19916;-78
2023/09/14 11:44:53;;;;;;;;;;;;;;;33.82;25.89;98768.31;5074089;28;19980;-77
2023/09/14 11:47:18;;;;;;;;;;;;;;;33.71;26.09;98768.28;5073672;28;19916;-76
2023/09/14 11:49:44;;;;;;;;;;;;;;;33.63;26.00;98768.00;5075016;28;19920;-76
2023/09/14 11:52:11;;;;;;;;;;;;;;;33.50;26.16;98761.22;5074116;28;19916;-73
2023/09/14 11:54:36;;;;;;;;;;;;;;;33.42;26.00;98759.03;5074311;28;19916;-76
2023/09/14 11:57:05;;;;;;;;;;;;;;;33.37;26.57;98757.13;5073021;28;19939;-77
2023/09/14 11:59:30;;;;;;;;;;;;;;;33.29;26.48;98755.75;5073138;28;19920;-75
2023/09/14 12:01:56;;;;;;;;;;;;;;;33.26;26.64;98748.16;5074024;28;20448;-78
2023/09/14 12:04:23;;;;;;;;;;;;;;;33.21;27.14;98753.56;5072621;28;20299;-78
2023/09/14 12:06:49;;;;;;;;;;;;;;;33.09;27.29;98753.75;5072179;28;19917;-78
2023/09/14 12:09:14;;;;;;;;;;;;;;;33.04;27.19;98752.94;5055530;28;19931;-75
2023/09/14 12:11:42;;;;;;;;;;;;;;;32.98;26.91;98746.66;5072620;28;20354;-76
2023/09/14 12:14:08;;;;;;;;;;;;;;;32.96;27.17;98741.53;5072303;28;19997;-74
2023/09/14 12:16:33;;;;;;;;;;;;;;;32.93;26.73;98738.53;5072182;28;19985;-75
2023/09/14 12:18:58;;;;;;;;;;;;;;;32.88;26.74;98742.03;5055373;28;20380;-73
2023/09/14 12:21:25;;;;;;;;;;;;;;;32.92;26.44;98735.00;5072489;28;19920;-77
2023/09/14 12:23:50;;;;;;;;;;;;;;;32.94;26.28;98734.75;5071857;28;19924;-74
2023/09/14 12:26:18;;;;;;;;;;;;;;;33.06;26.14;98737.25;5072289;28;19916;-74
2023/09/14 12:28:53;;;;;;;;;;;;;;;33.11;25.92;98731.84;5073144;28;20021;-75
2023/09/14 12:31:19;;;;;;;;;;;;;;;33.20;25.89;98733.00;5072162;28;19917;-73
2023/09/14 12:33:44;;;;;;;;;;;;;;;33.18;25.72;98724.34;5072098;28;19920;-74
2023/09/14 12:36:11;;;;;;;;;;;;;;;33.08;25.26;98716.94;5072253;28;19927;-69
2023/09/14 12:38:36;;;;;;;;;;;;;;;33.05;25.60;98714.81;5072461;28;19917;-69
2023/09/14 12:41:01;;;;;;;;;;;;;;;32.91;26.29;98717.19;5073570;28;19923;-69